createdAt,value
2022-08-03T00:00:43.501Z,99996.63
2022-08-03T00:03:16.896Z,99996.84
2022-08-03T00:06:04.419Z,100003.09
2022-08-03T00:08:37.717Z,100003.69
2022-08-03T00:11:09.764Z,100002.78
2022-08-03T00:13:38.324Z,100008.19
2022-08-03T00:16:07.724Z,100001.88
2022-08-03T00:18:38.456Z,99991.25
2022-08-03T00:21:07.517Z,99997.91
2022-08-03T00:23:52.357Z,99990.25
2022-08-03T00:26:22.153Z,99994.38
2022-08-03T00:28:51.217Z,99991.41
2022-08-03T00:31:23.061Z,99986.13
2022-08-03T00:34:09.925Z,99994.03
2022-08-03T00:36:39.252Z,99987.34
2022-08-03T00:39:08.286Z,99992.94
2022-08-03T00:41:37.488Z,99997.06
2022-08-03T00:44:07.196Z,99994.16
2022-08-03T00:46:36.504Z,99986.63
2022-08-03T00:49:04.555Z,99993.94
2022-08-03T00:51:34.611Z,99991.44
2022-08-03T00:54:04.194Z,99987.91
2022-08-03T00:56:33.270Z,99989.78
2022-08-03T00:59:02.698Z,99994.53
2022-08-03T01:01:32.383Z,99989.69
2022-08-03T01:04:02.324Z,99985.00
2022-08-03T01:06:35.492Z,99980.97
2022-08-03T01:09:08.008Z,99983.09
2022-08-03T01:12:00.106Z,99989.69
2022-08-03T01:14:32.978Z,99988.84
2022-08-03T01:17:05.092Z,99988.53
2022-08-03T01:19:41.754Z,99993.84
2022-08-03T01:22:24.933Z,99993.75
2022-08-03T01:24:57.966Z,99991.28
2022-08-03T01:27:30.466Z,99990.28
2022-08-03T01:30:08.388Z,99992.41
2022-08-03T01:33:01.026Z,99989.09
2022-08-03T01:35:32.808Z,99989.91
2022-08-03T01:38:08.434Z,99987.09
2022-08-03T01:40:36.488Z,99987.03
2022-08-03T01:43:05.653Z,99989.75
2022-08-03T01:45:36.105Z,99984.94
2022-08-03T01:48:05.681Z,99991.28
2022-08-03T01:50:34.675Z,99993.44
2022-08-03T01:53:03.947Z,99992.56
2022-08-03T01:55:33.348Z,99989.31
2022-08-03T01:58:05.937Z,99992.25
2022-08-03T02:00:38.312Z,99986.09
2022-08-03T02:03:07.491Z,99997.78
2022-08-03T02:05:36.870Z,99989.06
2022-08-03T02:08:08.291Z,99989.75
2022-08-03T02:10:37.414Z,99987.53
2022-08-03T02:13:07.642Z,99989.66
2022-08-03T02:15:38.593Z,99990.13
2022-08-03T02:18:08.787Z,99986.34
2022-08-03T02:20:39.066Z,99991.22
2022-08-03T02:23:08.555Z,99988.94
2022-08-03T02:25:42.400Z,99985.78
2022-08-03T02:28:12.726Z,99988.59
2022-08-03T02:30:44.301Z,99989.41
2022-08-03T02:33:20.909Z,99998.13
2022-08-03T02:35:50.307Z,99997.44
2022-08-03T02:38:20.977Z,99998.38
2022-08-03T02:40:50.246Z,99992.16
2022-08-03T02:43:19.247Z,99989.66
2022-08-03T02:45:51.106Z,99998.38
2022-08-03T02:48:22.882Z,100000.03
2022-08-03T02:50:53.351Z,100000.00
2022-08-03T02:53:22.678Z,100001.19
2022-08-03T02:55:50.642Z,99995.06
2022-08-03T02:58:21.302Z,99999.78
2022-08-03T03:00:51.787Z,99999.97
2022-08-03T03:03:19.863Z,100003.47
2022-08-03T03:05:54.682Z,100005.13
2022-08-03T03:08:27.457Z,100008.47
2022-08-03T03:10:58.625Z,100007.66
2022-08-03T03:13:28.661Z,99998.03
2022-08-03T03:16:02.887Z,100004.38
2022-08-03T03:18:34.968Z,100001.31
2022-08-03T03:21:05.129Z,100013.44
2022-08-03T03:23:34.645Z,100002.97
2022-08-03T03:26:06.381Z,100015.09
2022-08-03T03:28:43.877Z,100020.84
2022-08-03T03:31:14.651Z,100015.09
2022-08-03T03:33:43.634Z,100015.56
2022-08-03T03:36:14.626Z,100016.78
2022-08-03T03:38:43.935Z,100014.06
2022-08-03T03:41:13.348Z,100016.38
2022-08-03T03:43:42.730Z,100013.13
2022-08-03T03:46:14.830Z,100014.19
2022-08-03T03:48:44.118Z,100020.16
2022-08-03T03:51:13.174Z,100025.69
2022-08-03T03:53:43.623Z,100019.34
2022-08-03T03:56:11.652Z,100022.06
2022-08-03T03:58:44.241Z,100019.88
2022-08-03T04:01:15.670Z,100029.69
2022-08-03T04:03:45.120Z,100039.34
2022-08-03T04:06:31.878Z,100041.53
2022-08-03T04:09:15.769Z,100028.38
2022-08-03T04:11:47.017Z,100036.03
2022-08-03T04:14:17.877Z,100039.56
2022-08-03T04:16:51.544Z,100042.13
2022-08-03T04:19:29.486Z,100049.59
2022-08-03T04:22:01.522Z,100047.50
2022-08-03T04:24:34.212Z,100058.56
2022-08-03T04:27:02.660Z,100054.91
2022-08-03T04:29:32.128Z,100052.06
2022-08-03T04:32:03.305Z,100061.69
2022-08-03T04:34:32.573Z,100062.44
2022-08-03T04:37:05.570Z,100064.81
2022-08-03T04:39:34.592Z,100069.97
2022-08-03T04:42:07.931Z,100070.75
2022-08-03T04:44:41.776Z,100071.19
2022-08-03T04:47:12.378Z,100069.22
2022-08-03T04:49:44.018Z,100073.44
2022-08-03T04:52:15.504Z,100065.91
2022-08-03T04:54:50.090Z,100066.25
2022-08-03T04:57:22.989Z,100066.41
2022-08-03T05:00:02.147Z,100064.91
2022-08-03T05:02:41.815Z,100062.06
2022-08-03T05:05:16.041Z,100062.63
2022-08-03T05:07:50.704Z,100062.75
2022-08-03T05:10:20.666Z,100079.44
2022-08-03T05:12:52.221Z,100070.50
2022-08-03T05:15:22.673Z,100082.00
2022-08-03T05:17:57.057Z,100073.50
2022-08-03T05:20:28.008Z,100078.00
2022-08-03T05:22:56.018Z,100074.63
2022-08-03T05:25:27.349Z,100085.88
2022-08-03T05:27:55.461Z,100091.63
2022-08-03T05:30:29.721Z,100096.16
2022-08-03T05:33:03.759Z,100096.00
2022-08-03T05:35:56.072Z,100090.47
2022-08-03T05:38:20.862Z,100095.69
2022-08-03T05:40:57.602Z,100095.38
2022-08-03T05:43:44.978Z,100080.31
2022-08-03T05:46:13.341Z,100086.31
2022-08-03T05:48:42.922Z,100086.13
2022-08-03T05:51:12.583Z,100094.66
2022-08-03T05:53:40.849Z,100101.38
2022-08-03T05:56:14.530Z,100094.31
2022-08-03T05:58:44.654Z,100102.19
2022-08-03T06:01:12.706Z,100108.38
2022-08-03T06:03:42.411Z,100107.38
2022-08-03T06:06:11.618Z,100099.25
2022-08-03T06:08:39.884Z,100104.31
2022-08-03T06:11:07.891Z,100104.59
2022-08-03T06:13:35.875Z,100113.41
2022-08-03T06:16:03.910Z,100110.41
2022-08-03T06:18:31.953Z,100109.81
2022-08-03T06:21:14.453Z,100122.50
2022-08-03T06:23:54.178Z,100114.38
2022-08-03T06:26:24.726Z,100115.56
2022-08-03T06:28:54.224Z,100115.47
2022-08-03T06:31:24.198Z,100117.91
2022-08-03T06:34:32.989Z,100106.44
2022-08-03T06:36:48.561Z,100107.69
2022-08-03T06:39:17.581Z,100112.75
2022-08-03T06:41:46.652Z,100112.69
2022-08-03T06:44:16.072Z,100115.25
2022-08-03T06:46:45.791Z,100115.72
2022-08-03T06:49:13.868Z,100119.47
2022-08-03T06:52:03.405Z,100119.22
2022-08-03T06:54:33.329Z,100129.78
2022-08-03T06:57:02.556Z,100119.00
2022-08-03T07:00:09.451Z,100114.66
2022-08-03T07:02:21.290Z,100120.19
2022-08-03T07:04:50.532Z,100122.22
2022-08-03T07:07:21.012Z,100125.06
2022-08-03T07:09:57.317Z,100127.69
2022-08-03T07:12:28.428Z,100130.38
2022-08-03T07:15:00.762Z,100129.63
2022-08-03T07:17:32.110Z,100128.69
2022-08-03T07:20:01.841Z,100125.75
2022-08-03T07:22:32.353Z,100128.88
2022-08-03T07:25:01.484Z,100127.34
2022-08-03T07:27:30.368Z,100124.00
2022-08-03T07:30:01.851Z,100129.91
2022-08-03T07:32:31.668Z,100132.47
2022-08-03T07:35:01.777Z,100129.88
2022-08-03T07:37:36.218Z,100124.56
2022-08-03T07:40:08.629Z,100128.19
2022-08-03T07:42:37.709Z,100120.41
2022-08-03T07:45:08.268Z,100125.97
2022-08-03T07:47:53.733Z,100125.03
2022-08-03T07:50:26.164Z,100128.88
2022-08-03T07:52:57.948Z,100130.06
2022-08-03T07:55:28.076Z,100126.63
2022-08-03T07:58:09.792Z,100131.31
2022-08-03T08:00:39.124Z,100127.88
2022-08-03T08:03:08.173Z,100128.22
2022-08-03T08:05:37.992Z,100133.19
2022-08-03T08:08:08.463Z,100125.59
2022-08-03T08:10:40.258Z,100135.97
2022-08-03T08:13:11.981Z,100133.84
2022-08-03T08:15:42.885Z,100141.75
2022-08-03T08:18:15.663Z,100137.72
2022-08-03T08:20:45.145Z,100142.06
2022-08-03T08:23:42.050Z,100135.59
2022-08-03T08:26:04.927Z,100146.19
2022-08-03T08:28:34.376Z,100147.00
2022-08-03T08:31:03.750Z,100150.31
2022-08-03T08:34:02.715Z,100148.19
2022-08-03T08:36:24.184Z,100147.91
2022-08-03T08:38:53.786Z,100149.59
2022-08-03T08:41:22.984Z,100148.28
2022-08-03T08:43:55.502Z,100147.19
2022-08-03T08:46:29.180Z,100148.88
2022-08-03T08:48:58.757Z,100144.25
2022-08-03T08:51:50.953Z,100150.00
2022-08-03T08:54:22.287Z,100137.53
2022-08-03T08:56:52.304Z,100134.53
2022-08-03T08:59:21.870Z,100144.38
2022-08-03T09:01:51.119Z,100136.25
2022-08-03T09:04:20.529Z,100145.19
2022-08-03T09:07:10.443Z,100141.41
2022-08-03T09:10:11.513Z,100144.13
2022-08-03T09:12:41.621Z,100135.75
2022-08-03T09:15:24.738Z,100143.63
2022-08-03T09:17:56.333Z,100133.63
2022-08-03T09:20:26.897Z,100141.50
2022-08-03T09:22:57.972Z,100141.50
2022-08-03T09:25:33.414Z,100133.94
2022-08-03T09:28:10.864Z,100131.81
2022-08-03T09:30:41.411Z,100129.31
2022-08-03T09:33:11.068Z,100133.44
2022-08-03T09:35:57.496Z,100128.81
2022-08-03T09:38:27.582Z,100125.88
2022-08-03T09:41:00.792Z,100126.69
2022-08-03T09:43:30.351Z,100122.91
2022-08-03T09:46:08.489Z,100125.38
2022-08-03T09:48:37.940Z,100127.03
2022-08-03T09:51:14.496Z,100118.63
2022-08-03T09:54:01.803Z,100112.41
2022-08-03T09:56:47.454Z,100100.44
2022-08-03T09:59:26.024Z,100108.59
2022-08-03T10:01:58.180Z,100103.97
2022-08-03T10:04:27.436Z,100103.75
2022-08-03T10:07:09.338Z,100095.59
2022-08-03T10:09:38.561Z,100096.19
2022-08-03T10:12:14.804Z,100096.19
2022-08-03T10:14:45.871Z,100091.34
2022-08-03T10:17:15.262Z,100093.78
2022-08-03T10:19:43.426Z,100089.16
2022-08-03T10:22:15.173Z,100087.03
2022-08-03T10:24:49.869Z,100087.03
2022-08-03T10:27:23.293Z,100093.88
2022-08-03T10:29:53.892Z,100076.50
2022-08-03T10:32:26.040Z,100073.31
2022-08-03T10:34:59.913Z,100075.75
2022-08-03T10:37:31.718Z,100073.84
2022-08-03T10:40:01.940Z,100075.53
2022-08-03T10:42:32.516Z,100079.13
2022-08-03T10:45:07.916Z,100076.34
2022-08-03T10:47:37.115Z,100072.47
2022-08-03T10:50:07.576Z,100071.63
2022-08-03T10:52:41.333Z,100072.97
2022-08-03T10:55:50.394Z,100064.50
2022-08-03T10:58:57.956Z,100059.56
2022-08-03T11:01:59.236Z,100057.00
2022-08-03T11:04:30.814Z,100062.69
2022-08-03T11:07:23.785Z,100052.66
2022-08-03T11:09:53.546Z,100052.66
2022-08-03T11:12:29.867Z,100046.63
2022-08-03T11:15:02.464Z,100045.00
2022-08-03T11:17:30.490Z,100047.38
2022-08-03T11:20:04.789Z,100044.94
2022-08-03T11:22:54.585Z,100047.06
2022-08-03T11:25:53.393Z,100042.94
2022-08-03T11:28:30.675Z,100032.31
2022-08-03T11:31:48.738Z,100030.09
2022-08-03T11:34:17.319Z,100026.81
2022-08-03T11:37:23.321Z,100023.84
2022-08-03T11:39:57.785Z,100025.13
2022-08-03T11:42:50.734Z,100021.84
2022-08-03T11:45:20.170Z,100018.31
2022-08-03T11:47:51.594Z,100020.22
2022-08-03T11:50:20.260Z,100019.41
2022-08-03T11:52:50.046Z,100015.28
2022-08-03T11:55:20.516Z,100015.53
2022-08-03T11:59:10.623Z,100007.13
2022-08-03T12:00:38.873Z,100011.50
2022-08-03T12:03:11.160Z,100002.53
2022-08-03T12:05:51.262Z,99997.34
2022-08-03T12:08:32.201Z,99995.69
2022-08-03T12:11:02.426Z,99995.69
2022-08-03T12:14:08.891Z,99985.66
2022-08-03T12:16:28.859Z,99981.06
2022-08-03T12:19:00.224Z,99984.84
2022-08-03T12:21:29.674Z,99983.75
2022-08-03T12:24:00.376Z,99991.09
2022-08-03T12:26:29.938Z,99982.38
2022-08-03T12:28:59.260Z,99982.13
2022-08-03T12:31:27.441Z,99981.06
2022-08-03T12:34:04.407Z,99977.28
2022-08-03T12:36:35.436Z,99983.75
2022-08-03T12:39:05.700Z,99982.72
2022-08-03T12:41:36.033Z,99983.53
2022-08-03T12:44:04.611Z,99977.28
2022-08-03T12:46:34.757Z,99973.50
2022-08-03T12:49:08.453Z,99975.97
2022-08-03T12:51:38.446Z,99978.91
2022-08-03T12:54:10.453Z,99978.69
2022-08-03T12:57:00.922Z,99978.69
2022-08-03T12:59:35.337Z,99967.56
2022-08-03T13:02:16.504Z,99956.69
2022-08-03T13:04:49.030Z,99959.41
2022-08-03T13:07:19.544Z,99964.59
2022-08-03T13:09:50.601Z,99962.97
2022-08-03T13:12:20.984Z,99952.94
2022-08-03T13:14:51.916Z,99966.50
2022-08-03T13:17:21.730Z,99954.38
2022-08-03T13:19:53.365Z,99949.47
2022-08-03T13:22:22.175Z,99944.91
2022-08-03T13:24:52.829Z,99947.34
2022-08-03T13:28:02.086Z,99950.66
2022-08-03T13:30:11.616Z,99949.84
2022-08-03T13:32:41.117Z,99946.03
2022-08-03T13:35:12.443Z,99939.56
2022-08-03T13:37:48.950Z,99938.47
2022-08-03T13:40:18.858Z,99933.03
2022-08-03T13:42:52.538Z,99940.09
2022-08-03T13:45:27.552Z,99942.56
2022-08-03T13:47:56.636Z,99935.00
2022-08-03T13:50:27.135Z,99935.81
2022-08-03T13:52:56.606Z,99926.59
2022-08-03T13:55:25.834Z,99929.88
2022-08-03T13:58:03.232Z,99925.28
2022-08-03T14:00:36.145Z,99922.56
2022-08-03T14:03:14.170Z,99917.94
2022-08-03T14:05:47.840Z,99912.03
2022-08-03T14:08:17.381Z,99916.38
2022-08-03T14:10:46.666Z,99916.97
2022-08-03T14:13:17.655Z,99910.44
2022-08-03T14:15:51.385Z,99912.09
2022-08-03T14:18:27.774Z,99909.94
2022-08-03T14:21:04.989Z,99905.09
2022-08-03T14:23:35.104Z,99907.28
2022-08-03T14:26:04.315Z,99898.91
2022-08-03T14:28:33.532Z,99903.25
2022-08-03T14:31:02.958Z,99899.22
2022-08-03T14:33:30.980Z,99907.13
2022-08-03T14:36:01.596Z,99895.97
2022-08-03T14:38:33.361Z,99901.19
2022-08-03T14:41:02.518Z,99896.56
2022-08-03T14:43:33.859Z,99894.41
2022-08-03T14:46:02.224Z,99897.72
2022-08-03T14:50:32.448Z,99894.72
2022-08-03T14:51:21.815Z,99897.19
2022-08-03T14:53:51.326Z,99898.81
2022-08-03T14:56:20.964Z,99891.25
2022-08-03T14:58:52.468Z,99889.09
2022-08-03T15:02:06.455Z,99892.63
2022-08-03T15:04:10.946Z,99888.59
2022-08-03T15:06:41.743Z,99888.31
2022-08-03T15:09:23.715Z,99883.72
2022-08-03T15:11:53.771Z,99881.56
2022-08-03T15:14:32.337Z,99882.97
2022-08-03T15:17:03.207Z,99882.72
2022-08-03T15:20:00.425Z,99887.94
2022-08-03T15:22:25.401Z,99886.03
2022-08-03T15:26:01.649Z,99882.22
2022-08-03T15:28:02.918Z,99880.59
2022-08-03T15:30:36.939Z,99883.88
2022-08-03T15:33:06.361Z,99880.88
2022-08-03T15:35:35.694Z,99880.66
2022-08-03T15:38:09.706Z,99886.91
2022-08-03T15:40:39.172Z,99882.28
2022-08-03T15:43:08.331Z,99881.19
2022-08-03T15:45:37.568Z,99879.31
2022-08-03T15:48:07.327Z,99871.97
2022-08-03T15:50:38.060Z,99868.16
2022-08-03T15:53:08.769Z,99874.41
2022-08-03T15:55:38.116Z,99861.41
2022-08-03T15:58:59.647Z,99861.97
2022-08-03T16:01:01.006Z,99863.88
2022-08-03T16:03:34.228Z,99868.22
2022-08-03T16:06:03.858Z,99859.00
2022-08-03T16:08:33.278Z,99865.25
2022-08-03T16:11:01.411Z,99865.00
2022-08-03T16:14:13.514Z,99861.47
2022-08-03T16:16:18.110Z,99862.28
2022-08-03T16:18:47.542Z,99863.13
2022-08-03T16:21:19.291Z,99866.38
2022-08-03T16:23:56.190Z,99860.13
2022-08-03T16:26:25.224Z,99860.94
2022-08-03T16:28:57.375Z,99868.03
2022-08-03T16:31:28.746Z,99874.28
2022-08-03T16:33:57.956Z,99866.13
2022-08-03T16:36:27.689Z,99869.66
2022-08-03T16:39:05.503Z,99859.59
2022-08-03T16:41:54.347Z,99861.25
2022-08-03T16:44:22.795Z,99860.19
2022-08-03T16:46:51.992Z,99867.81
2022-08-03T16:49:53.638Z,99873.25
2022-08-03T16:52:13.016Z,99867.81
2022-08-03T16:54:43.788Z,99868.38
2022-08-03T16:57:56.407Z,99869.47
2022-08-03T17:00:10.226Z,99873.81
2022-08-03T17:02:39.763Z,99869.47
2022-08-03T17:05:17.610Z,99873.81
2022-08-03T17:07:54.507Z,99874.91
2022-08-03T17:10:27.490Z,99880.34
2022-08-03T17:12:57.378Z,99886.59
2022-08-03T17:15:37.949Z,99886.59
2022-08-03T17:18:17.821Z,99884.69
2022-08-03T17:20:51.532Z,99880.34
2022-08-03T17:23:34.623Z,99880.34
2022-08-03T17:26:11.587Z,99890.13
2022-08-03T17:28:58.203Z,99885.78
2022-08-03T17:31:31.497Z,99892.84
2022-08-03T17:34:02.146Z,99890.13
2022-08-03T17:37:02.187Z,99901.00
2022-08-03T17:39:36.186Z,99887.41
2022-08-03T17:42:29.674Z,99890.94
2022-08-03T17:45:07.219Z,99893.94
2022-08-03T17:47:42.578Z,99896.09
2022-08-03T17:50:25.788Z,99897.16
2022-08-03T17:53:15.533Z,99900.72
2022-08-03T17:56:04.393Z,99897.97
2022-08-03T17:58:41.311Z,99891.97
2022-08-03T18:02:03.250Z,99896.59
2022-08-03T18:04:29.631Z,99897.66
2022-08-03T18:07:11.237Z,99905.81
2022-08-03T18:10:04.772Z,99905.81
2022-08-03T18:12:39.436Z,99905.00
2022-08-03T18:15:21.450Z,99902.28
2022-08-03T18:17:55.873Z,99903.09
2022-08-03T18:20:31.220Z,99903.38
2022-08-03T18:23:05.606Z,99912.34
2022-08-03T18:25:45.412Z,99911.78
2022-08-03T18:28:19.566Z,99910.13
2022-08-03T18:30:56.060Z,99909.88
2022-08-03T18:34:16.307Z,99918.28
2022-08-03T18:36:21.633Z,99918.28
2022-08-03T18:38:58.492Z,99922.06
2022-08-03T18:41:32.921Z,99915.56
2022-08-03T18:44:08.747Z,99916.63
2022-08-03T18:47:04.480Z,99920.44
2022-08-03T18:49:41.777Z,99920.44
2022-08-03T18:52:14.880Z,99926.44
2022-08-03T18:55:02.839Z,99923.97
2022-08-03T18:57:42.715Z,99925.88
2022-08-03T19:00:15.884Z,99924.25
2022-08-03T19:02:58.751Z,99924.25
2022-08-03T19:05:51.623Z,99924.25
2022-08-03T19:08:18.306Z,99926.69
2022-08-03T19:11:03.845Z,99934.59
2022-08-03T19:13:40.444Z,99937.31
2022-08-03T19:16:15.799Z,99939.22
2022-08-03T19:18:49.251Z,99937.03
2022-08-03T19:21:18.801Z,99934.09
2022-08-03T19:23:48.540Z,99934.91
2022-08-03T19:26:31.179Z,99942.81
2022-08-03T19:29:00.796Z,99939.00
2022-08-03T19:31:30.949Z,99945.84
2022-08-03T19:34:09.778Z,99941.47
2022-08-03T19:36:43.697Z,99945.84
2022-08-03T19:39:14.366Z,99948.56
2022-08-03T19:41:51.371Z,99942.31
2022-08-03T19:44:28.611Z,99941.22
2022-08-03T19:47:01.918Z,99948.56
2022-08-03T19:50:04.763Z,99953.16
2022-08-03T19:52:31.315Z,99954.00
2022-08-03T19:55:00.925Z,99948.31
2022-08-03T19:57:30.082Z,99951.84
2022-08-03T19:59:59.938Z,99945.59
2022-08-03T20:02:34.282Z,99950.75
2022-08-03T20:05:04.909Z,99955.38
2022-08-03T20:07:47.578Z,99947.22
2022-08-03T20:10:17.776Z,99954.28
2022-08-03T20:12:47.313Z,99941.78
2022-08-03T20:15:22.253Z,99947.22
2022-08-03T20:18:00.386Z,99948.84
2022-08-03T20:20:33.351Z,99948.84
2022-08-03T20:23:12.470Z,99947.22
2022-08-03T20:25:57.010Z,99954.28
2022-08-03T20:28:27.834Z,99958.91
2022-08-03T20:30:59.804Z,99952.66
2022-08-03T20:33:46.762Z,99957.00
2022-08-03T20:36:22.450Z,99961.38
2022-08-03T20:38:57.701Z,99955.94
2022-08-03T20:41:30.751Z,99957.00
2022-08-03T20:44:00.940Z,99967.06
2022-08-03T20:46:38.546Z,99965.69
2022-08-03T20:49:14.908Z,99960.75
2022-08-03T20:51:49.744Z,99968.34
2022-08-03T20:54:28.839Z,99970.50
2022-08-03T20:56:58.169Z,99965.56
2022-08-03T20:59:35.024Z,99962.84
2022-08-03T21:02:11.813Z,99965.31
2022-08-03T21:04:53.024Z,99974.81
2022-08-03T21:07:23.597Z,99967.72
2022-08-03T21:09:55.497Z,99965.84
2022-08-03T21:12:29.171Z,99969.88
2022-08-03T21:15:00.840Z,99967.41
2022-08-03T21:20:14.031Z,99967.09
2022-08-03T21:22:47.401Z,99975.25
2022-08-03T21:25:17.616Z,99974.44
2022-08-03T21:27:45.638Z,99971.97
2022-08-03T21:30:15.409Z,99981.75
2022-08-03T21:32:48.113Z,99980.94
2022-08-03T21:35:17.696Z,99984.16
2022-08-03T21:38:15.752Z,99980.38
2022-08-03T21:40:47.556Z,99985.47
2022-08-03T21:43:18.435Z,99984.91
2022-08-03T21:45:51.759Z,99985.75
2022-08-03T21:48:24.099Z,99981.94
2022-08-03T21:50:59.956Z,99990.91
2022-08-03T21:54:00.405Z,99995.53
2022-08-03T21:56:28.425Z,100002.06
2022-08-03T21:59:00.082Z,99999.34
2022-08-03T22:01:29.556Z,100001.22
2022-08-03T22:04:05.829Z,99998.75
2022-08-03T22:06:36.515Z,99997.94
2022-08-03T22:09:07.308Z,99997.94
2022-08-03T22:11:37.557Z,99999.56
2022-08-03T22:14:06.396Z,100006.66
2022-08-03T22:16:35.649Z,100003.69
2022-08-03T22:19:04.976Z,100004.50
2022-08-03T22:21:36.236Z,100005.59
2022-08-03T22:24:07.489Z,100007.50
2022-08-03T22:26:36.680Z,100011.75
2022-08-03T22:29:07.844Z,100013.06
2022-08-03T22:31:57.372Z,100007.63
2022-08-03T22:34:27.615Z,100013.06
2022-08-03T22:37:00.348Z,100009.22
2022-08-03T22:39:31.708Z,100003.78
2022-08-03T22:42:00.449Z,100006.50
2022-08-03T22:44:28.578Z,100016.53
2022-08-03T22:46:57.822Z,100011.09
2022-08-03T22:49:28.075Z,100007.56
2022-08-03T22:51:57.209Z,99998.34
2022-08-03T22:54:26.388Z,99998.91
2022-08-03T22:56:59.602Z,99998.09
2022-08-03T22:59:41.075Z,100006.50
2022-08-03T23:02:20.307Z,100001.88
2022-08-03T23:04:52.368Z,100009.22
2022-08-03T23:07:26.137Z,100004.84
2022-08-03T23:09:55.539Z,100002.13
2022-08-03T23:12:26.221Z,100008.88
2022-08-03T23:14:56.281Z,100005.34
2022-08-03T23:17:25.439Z,100001.56
2022-08-03T23:19:55.004Z,99994.47
2022-08-03T23:22:29.657Z,100002.63
2022-08-03T23:25:03.808Z,100002.63
2022-08-03T23:27:34.623Z,100002.88
2022-08-03T23:30:03.906Z,99998.28
2022-08-03T23:32:33.190Z,99997.44
2022-08-03T23:35:20.688Z,99995.00
2022-08-03T23:38:04.022Z,99987.09
2022-08-03T23:40:38.770Z,99987.91
2022-08-03T23:43:14.067Z,99983.56
2022-08-03T23:45:48.231Z,99988.16
2022-08-03T23:48:17.491Z,99986.25
2022-08-03T23:50:47.157Z,99986.25
2022-08-03T23:53:19.501Z,99982.16
2022-08-03T23:55:57.073Z,99975.59
2022-08-03T23:58:35.457Z,99992.72
